Time,TemperatureF,DewpointF,PressureIn,WindDirection,WindDirectionDegrees,WindSpeedMPH,WindSpeedGustMPH,Humidity,HourlyPrecipIn,Conditions,Clouds,dailyrainin,SoftwareType,DateUTC
2013-05-02 00:03:00,47.0,39.0,-100.00,ESE,116,1.0,3.0,72,0.00,,,-99.99,,2013-05-02 04:03:00,
2013-05-02 00:12:00,47.0,39.0,-100.00,East,79,0.0,2.0,73,0.00,,,-99.99,,2013-05-02 04:12:00,
2013-05-02 00:23:00,47.0,39.0,-100.00,SSE,161,0.0,1.0,73,0.00,,,-99.99,,2013-05-02 04:23:00,
2013-05-02 00:33:00,47.0,39.0,-100.00,South,182,0.0,2.0,73,0.00,,,-99.99,,2013-05-02 04:33:00,
2013-05-02 00:42:00,47.0,38.0,-100.00,WSW,241,0.0,1.0,73,0.00,,,-99.99,,2013-05-02 04:42:00,
2013-05-02 00:52:00,-999.0,-99.9,-100.00,SSW,198,0.0,0.0,-999,-99.99,,,-99.99,,2013-05-02 04:52:00,
2013-05-02 01:02:00,-999.0,-99.9,-100.00,SE,143,0.0,0.0,-999,-99.99,,,-99.99,,2013-05-02 05:02:00,
2013-05-02 01:12:00,46.0,39.0,-100.00,SE,126,0.0,1.0,77,0.00,,,-99.99,,2013-05-02 05:12:00,
2013-05-02 01:22:00,45.0,39.0,-100.00,SE,143,0.0,0.0,78,0.00,,,-99.99,,2013-05-02 05:22:00,
2013-05-02 01:32:00,46.0,40.0,-100.00,SSW,206,0.0,0.0,80,0.00,,,-99.99,,2013-05-02 05:32:00,
2013-05-02 01:42:00,45.0,40.0,-100.00,SSW,193,0.0,0.0,82,0.00,,,-99.99,,2013-05-02 05:42:00,
2013-05-02 01:52:00,45.0,40.0,-100.00,SSW,192,0.0,0.0,83,0.00,,,-99.99,,2013-05-02 05:52:00,
2013-05-02 02:01:00,45.0,40.0,-100.00,SSW,192,0.0,0.0,83,0.00,,,-99.99,,2013-05-02 06:01:00,
2013-05-02 02:12:00,44.0,40.0,-100.00,East,79,0.0,1.0,86,0.00,,,-99.99,,2013-05-02 06:12:00,
2013-05-02 02:21:00,44.0,40.0,-100.00,East,99,0.0,1.0,85,0.00,,,-99.99,,2013-05-02 06:21:00,
2013-05-02 02:32:00,-999.0,-99.9,-100.00,SE,134,0.0,2.0,-999,-99.99,,,-99.99,,2013-05-02 06:32:00,
2013-05-02 02:42:00,-999.0,-99.9,-100.00,SE,134,1.0,2.0,-999,-99.99,,,-99.99,,2013-05-02 06:42:00,
2013-05-02 02:52:00,43.0,40.0,-100.00,SE,134,1.0,2.0,89,0.00,,,-99.99,,2013-05-02 06:52:00,
2013-05-02 03:02:00,43.0,40.0,-100.00,SSE,161,0.0,1.0,90,0.00,,,-99.99,,2013-05-02 07:02:00,
2013-05-02 03:11:00,43.0,41.0,-100.00,SE,130,0.0,0.0,91,0.00,,,-99.99,,2013-05-02 07:11:00,
2013-05-02 03:21:00,43.0,41.0,-100.00,SSE,154,0.0,1.0,92,0.00,,,-99.99,,2013-05-02 07:21:00,
2013-05-02 03:32:00,43.0,42.0,-100.00,SSW,208,0.0,0.0,94,-99.99,,,-99.99,,2013-05-02 07:32:00,
2013-05-02 03:42:00,43.0,42.0,-100.00,SSE,158,0.0,0.0,94,-99.99,,,-99.99,,2013-05-02 07:42:00,
2013-05-02 03:52:00,43.0,42.0,-100.00,SE,130,0.0,0.0,95,0.00,,,-99.99,,2013-05-02 07:52:00,
2013-05-02 04:02:00,43.0,42.0,-100.00,ESE,121,0.0,1.0,96,0.00,,,-99.99,,2013-05-02 08:02:00,
2013-05-02 04:11:00,43.0,42.0,-100.00,SW,217,0.0,0.0,96,-99.99,,,-99.99,,2013-05-02 08:11:00,
2013-05-02 04:22:00,43.0,42.0,-100.00,SSW,202,0.0,1.0,96,0.00,,,-99.99,,2013-05-02 08:22:00,
2013-05-02 04:32:00,43.0,43.0,-100.00,SSE,147,0.0,0.0,100,-99.99,,,-99.99,,2013-05-02 08:32:00,
2013-05-02 04:42:00,43.0,43.0,-100.00,SE,145,0.0,0.0,100,0.00,,,-99.99,,2013-05-02 08:42:00,
2013-05-02 04:52:00,42.0,42.0,-100.00,SSW,192,0.0,1.0,100,0.00,,,-99.99,,2013-05-02 08:52:00,
2013-05-02 05:02:00,42.0,42.0,-100.00,SSW,213,0.0,1.0,100,0.00,,,-99.99,,2013-05-02 09:02:00,
2013-05-02 05:12:00,42.0,42.0,-100.00,WSW,244,0.0,1.0,100,0.00,,,-99.99,,2013-05-02 09:12:00,
2013-05-02 05:21:00,43.0,43.0,-100.00,WNW,296,0.0,2.0,100,0.00,,,-99.99,,2013-05-02 09:21:00,
2013-05-02 05:33:00,44.0,-99.9,-100.00,NW,326,3.0,4.0,-999,0.00,,,-99.99,,2013-05-02 09:33:00,
2013-05-02 05:42:00,42.0,42.0,-100.00,NNW,340,1.0,4.0,100,0.00,,,-99.99,,2013-05-02 09:42:00,
2013-05-02 05:52:00,42.0,42.0,-100.00,NE,49,0.0,0.0,100,0.00,,,-99.99,,2013-05-02 09:52:00,
2013-05-02 06:03:00,42.0,-99.9,-100.00,NW,322,1.0,3.0,-999,0.00,,,-99.99,,2013-05-02 10:03:00,
2013-05-02 06:13:00,42.0,-99.9,-100.00,NE,44,0.0,0.0,-999,0.00,,,-99.99,,2013-05-02 10:13:00,
2013-05-02 06:23:00,-999.0,-99.9,-100.00,NW,316,0.0,1.0,-999,-99.99,,,-99.99,,2013-05-02 10:23:00,
2013-05-02 06:33:00,42.0,-99.9,-100.00,NW,305,0.0,1.0,-999,0.00,,,-99.99,,2013-05-02 10:33:00,
2013-05-02 06:42:00,44.0,-99.9,-100.00,North,350,0.0,1.0,-999,0.00,,,-99.99,,2013-05-02 10:42:00,
2013-05-02 06:52:00,44.0,44.0,-100.00,NNW,335,1.0,2.0,100,0.00,,,-99.99,,2013-05-02 10:52:00,
2013-05-02 07:02:00,44.0,44.0,-100.00,NW,325,2.0,3.0,100,0.00,,,-99.99,,2013-05-02 11:02:00,
2013-05-02 07:12:00,44.0,44.0,-100.00,NW,316,1.0,3.0,100,-99.99,,,-99.99,,2013-05-02 11:12:00,
2013-05-02 07:22:00,45.0,45.0,-100.00,WNW,284,1.0,2.0,98,0.00,,,-99.99,,2013-05-02 11:22:00,
2013-05-02 07:32:00,46.0,42.0,-100.00,WNW,298,0.0,2.0,87,0.00,,,-99.99,,2013-05-02 11:32:00,
2013-05-02 07:42:00,47.0,41.0,-100.00,WNW,291,1.0,2.0,78,-99.99,,,-99.99,,2013-05-02 11:42:00,
2013-05-02 07:52:00,47.0,41.0,-100.00,NW,323,1.0,2.0,79,0.00,,,-99.99,,2013-05-02 11:52:00,
2013-05-02 08:01:00,47.0,42.0,-100.00,NW,320,1.0,2.0,81,0.00,,,-99.99,,2013-05-02 12:01:00,
2013-05-02 08:11:00,48.0,42.0,-100.00,NW,326,1.0,2.0,78,0.00,,,-99.99,,2013-05-02 12:11:00,
2013-05-02 08:21:00,49.0,41.0,-100.00,NW,325,1.0,2.0,76,0.00,,,-99.99,,2013-05-02 12:21:00,
2013-05-02 08:32:00,50.0,41.0,-100.00,NNW,328,1.0,1.0,71,0.00,,,-99.99,,2013-05-02 12:32:00,
2013-05-02 08:42:00,51.0,40.0,-100.00,NNW,339,1.0,2.0,65,0.00,,,-99.99,,2013-05-02 12:42:00,
2013-05-02 08:52:00,52.0,40.0,-100.00,NW,323,1.0,2.0,64,-99.99,,,-99.99,,2013-05-02 12:52:00,
2013-05-02 09:02:00,-999.0,-99.9,-100.00,NNW,330,1.0,2.0,-999,-99.99,,,-99.99,,2013-05-02 13:02:00,
2013-05-02 09:11:00,53.0,40.0,-100.00,NW,323,1.0,2.0,61,0.00,,,-99.99,,2013-05-02 13:11:00,
2013-05-02 09:21:00,53.0,42.0,-100.00,NW,318,2.0,2.0,67,0.00,,,-99.99,,2013-05-02 13:21:00,
2013-05-02 09:32:00,54.0,43.0,-100.00,NW,309,2.0,3.0,66,0.00,,,-99.99,,2013-05-02 13:32:00,
2013-05-02 09:42:00,55.0,42.0,-100.00,NNW,330,2.0,3.0,63,0.00,,,-99.99,,2013-05-02 13:42:00,
2013-05-02 09:52:00,58.0,38.0,-100.00,NNW,328,1.0,2.0,47,0.00,,,-99.99,,2013-05-02 13:52:00,
2013-05-02 10:02:00,59.0,41.0,-100.00,NW,325,1.0,2.0,50,0.00,,,-99.99,,2013-05-02 14:02:00,
2013-05-02 10:11:00,59.0,40.0,-100.00,NNW,332,1.0,3.0,49,0.00,,,-99.99,,2013-05-02 14:11:00,
2013-05-02 10:22:00,60.0,39.0,-100.00,NW,325,2.0,2.0,45,0.00,,,-99.99,,2013-05-02 14:22:00,
2013-05-02 10:32:00,-999.0,-99.9,-100.00,NNW,337,2.0,3.0,-999,-99.99,,,-99.99,,2013-05-02 14:32:00,
2013-05-02 10:43:00,-999.0,-99.9,-100.00,NNW,335,2.0,2.0,-999,-99.99,,,-99.99,,2013-05-02 14:43:00,
2013-05-02 10:52:00,64.0,38.0,-100.00,NNW,340,2.0,3.0,38,0.00,,,-99.99,,2013-05-02 14:52:00,
2013-05-02 11:02:00,65.0,37.0,-100.00,NNW,335,2.0,3.0,36,0.00,,,-99.99,,2013-05-02 15:02:00,
2013-05-02 11:12:00,65.0,39.0,-100.00,NW,325,2.0,4.0,38,0.00,,,-99.99,,2013-05-02 15:12:00,
2013-05-02 11:22:00,65.0,37.0,-100.00,NW,325,2.0,4.0,35,0.00,,,-99.99,,2013-05-02 15:22:00,
2013-05-02 11:33:00,67.0,39.0,-100.00,North,3,1.0,4.0,36,0.00,,,-99.99,,2013-05-02 15:33:00,
2013-05-02 11:43:00,69.0,39.0,-100.00,ENE,69,3.0,7.0,32,0.00,,,-99.99,,2013-05-02 15:43:00,
2013-05-02 12:03:00,68.0,38.0,-100.00,East,80,4.0,8.0,33,0.00,,,-99.99,,2013-05-02 16:03:00,
2013-05-02 12:13:00,67.0,36.0,-100.00,East,88,4.0,9.0,31,0.00,,,-99.99,,2013-05-02 16:13:00,
2013-05-02 12:23:00,-999.0,-99.9,-100.00,East,88,4.0,9.0,-999,-99.99,,,-99.99,,2013-05-02 16:23:00,
2013-05-02 12:32:00,69.0,36.0,-100.00,East,92,4.0,9.0,30,-99.99,,,-99.99,,2013-05-02 16:32:00,
2013-05-02 12:43:00,70.0,35.0,-100.00,East,90,4.0,9.0,27,0.00,,,-99.99,,2013-05-02 16:43:00,
2013-05-02 12:52:00,72.0,36.0,-100.00,East,86,6.0,11.0,27,0.00,,,-99.99,,2013-05-02 16:52:00,
2013-05-02 13:02:00,71.0,36.0,-100.00,East,96,6.0,15.0,28,0.00,,,-99.99,,2013-05-02 17:02:00,
2013-05-02 13:12:00,65.0,42.0,-100.00,East,95,9.0,19.0,43,0.00,,,-99.99,,2013-05-02 17:12:00,
2013-05-02 13:22:00,62.0,44.0,-100.00,East,79,10.0,17.0,52,0.00,,,-99.99,,2013-05-02 17:22:00,
2013-05-02 13:32:00,59.0,44.0,-100.00,East,85,9.0,17.0,57,0.00,,,-99.99,,2013-05-02 17:32:00,
2013-05-02 13:42:00,59.0,44.0,-100.00,East,80,9.0,17.0,58,0.00,,,-99.99,,2013-05-02 17:42:00,
2013-05-02 13:52:00,59.0,45.0,-100.00,ENE,71,10.0,19.0,59,0.00,,,-99.99,,2013-05-02 17:52:00,
2013-05-02 14:01:00,61.0,45.0,-100.00,ENE,71,6.0,11.0,56,0.00,,,-99.99,,2013-05-02 18:01:00,
2013-05-02 14:11:00,58.0,44.0,-100.00,ENE,73,11.0,21.0,58,0.00,,,-99.99,,2013-05-02 18:11:00,
2013-05-02 14:22:00,-999.0,-99.9,-100.00,East,79,8.0,19.0,-999,-99.99,,,-99.99,,2013-05-02 18:22:00,
2013-05-02 14:32:00,57.0,44.0,-100.00,East,82,9.0,19.0,60,0.00,,,-99.99,,2013-05-02 18:32:00,
2013-05-02 14:42:00,56.0,44.0,-100.00,East,79,11.0,19.0,63,0.00,,,-99.99,,2013-05-02 18:42:00,
2013-05-02 14:52:00,55.0,44.0,-100.00,East,79,12.0,22.0,67,0.00,,,-99.99,,2013-05-02 18:52:00,
2013-05-02 15:01:00,56.0,45.0,-100.00,ENE,73,7.0,16.0,65,0.00,,,-99.99,,2013-05-02 19:01:00,
2013-05-02 15:11:00,53.0,44.0,-100.00,ENE,76,11.0,21.0,71,0.00,,,-99.99,,2013-05-02 19:11:00,
2013-05-02 15:22:00,-999.0,-99.9,-100.00,ENE,73,9.0,19.0,-999,-99.99,,,-99.99,,2013-05-02 19:22:00,
2013-05-02 15:32:00,52.0,44.0,-100.00,ENE,75,10.0,19.0,74,0.00,,,-99.99,,2013-05-02 19:32:00,
2013-05-02 15:42:00,52.0,42.0,-100.00,ENE,78,9.0,17.0,70,0.00,,,-99.99,,2013-05-02 19:42:00,
2013-05-02 15:52:00,51.0,42.0,-100.00,ENE,73,9.0,18.0,73,0.00,,,-99.99,,2013-05-02 19:52:00,
2013-05-02 16:02:00,51.0,41.0,-100.00,ENE,73,7.0,15.0,69,0.00,,,-99.99,,2013-05-02 20:02:00,
2013-05-02 16:11:00,51.0,40.0,-100.00,ENE,71,7.0,16.0,66,0.00,,,-99.99,,2013-05-02 20:11:00,
2013-05-02 16:22:00,51.0,39.0,-100.00,ENE,69,6.0,12.0,64,0.00,,,-99.99,,2013-05-02 20:22:00,
2013-05-02 16:32:00,51.0,40.0,-100.00,ENE,71,4.0,10.0,64,0.00,,,-99.99,,2013-05-02 20:32:00,
2013-05-02 16:41:00,50.0,37.0,-100.00,ENE,76,7.0,14.0,60,0.00,,,-99.99,,2013-05-02 20:41:00,
2013-05-02 16:52:00,-999.0,-99.9,-100.00,ENE,72,6.0,11.0,-999,-99.99,,,-99.99,,2013-05-02 20:52:00,
2013-05-02 17:01:00,-999.0,-99.9,-100.00,ENE,73,7.0,12.0,-999,-99.99,,,-99.99,,2013-05-02 21:01:00,
2013-05-02 17:12:00,50.0,38.0,-100.00,ENE,69,5.0,11.0,64,0.00,,,-99.99,,2013-05-02 21:12:00,
2013-05-02 17:21:00,50.0,39.0,-100.00,ENE,64,5.0,12.0,66,0.01,,,-99.99,,2013-05-02 21:21:00,
2013-05-02 17:33:00,50.0,39.0,-100.00,ENE,66,4.0,9.0,67,0.00,,,-99.99,,2013-05-02 21:33:00,
2013-05-02 17:43:00,-999.0,-99.9,-100.00,ENE,73,4.0,9.0,-999,-99.99,,,-99.99,,2013-05-02 21:43:00,
2013-05-02 17:53:00,50.0,39.0,-100.00,ENE,78,4.0,9.0,65,0.00,,,-99.99,,2013-05-02 21:53:00,
2013-05-02 18:03:00,50.0,38.0,-100.00,ENE,78,6.0,12.0,65,0.00,,,-99.99,,2013-05-02 22:03:00,
2013-05-02 18:12:00,49.0,38.0,-100.00,ENE,71,4.0,11.0,64,0.00,,,-99.99,,2013-05-02 22:12:00,
2013-05-02 18:22:00,50.0,38.0,-100.00,ENE,69,5.0,11.0,65,0.00,,,-99.99,,2013-05-02 22:22:00,
2013-05-02 18:33:00,-999.0,-99.9,-100.00,ENE,78,2.0,7.0,-999,-99.99,,,-99.99,,2013-05-02 22:33:00,
2013-05-02 18:42:00,50.0,38.0,-100.00,East,79,3.0,8.0,63,0.00,,,-99.99,,2013-05-02 22:42:00,
2013-05-02 18:52:00,50.0,38.0,-100.00,ENE,73,3.0,8.0,64,0.00,,,-99.99,,2013-05-02 22:52:00,
2013-05-02 19:02:00,50.0,37.0,-100.00,ENE,73,2.0,6.0,61,0.00,,,-99.99,,2013-05-02 23:02:00,
2013-05-02 19:11:00,50.0,37.0,-100.00,ENE,69,1.0,6.0,61,0.00,,,-99.99,,2013-05-02 23:11:00,
2013-05-02 19:22:00,50.0,37.0,-100.00,ENE,78,1.0,4.0,60,0.00,,,-99.99,,2013-05-02 23:22:00,
2013-05-02 19:32:00,-999.0,-99.9,-100.00,ESE,103,1.0,4.0,-999,-99.99,,,-99.99,,2013-05-02 23:32:00,
2013-05-02 19:42:00,50.0,37.0,-100.00,East,95,1.0,4.0,60,0.00,,,-99.99,,2013-05-02 23:42:00,
2013-05-02 19:51:00,50.0,37.0,-100.00,ENE,65,1.0,4.0,62,0.00,,,-99.99,,2013-05-02 23:51:00,
2013-05-02 20:01:00,49.0,37.0,-100.00,NNE,18,1.0,2.0,63,0.00,,,-99.99,,2013-05-03 00:01:00,
2013-05-02 20:11:00,49.0,38.0,-100.00,NNE,31,1.0,3.0,66,0.00,,,-99.99,,2013-05-03 00:11:00,
2013-05-02 20:21:00,49.0,39.0,-100.00,NE,45,1.0,2.0,67,0.00,,,-99.99,,2013-05-03 00:21:00,
2013-05-02 20:32:00,-999.0,-99.9,-100.00,North,10,0.0,2.0,-999,-99.99,,,-99.99,,2013-05-03 00:32:00,
2013-05-02 20:42:00,49.0,38.0,-100.00,North,3,0.0,2.0,66,0.00,,,-99.99,,2013-05-03 00:42:00,
2013-05-02 20:52:00,-999.0,-99.9,-100.00,NNW,339,0.0,1.0,-999,-99.99,,,-99.99,,2013-05-03 00:52:00,
2013-05-02 21:01:00,48.0,38.0,-100.00,North,352,1.0,2.0,67,0.00,,,-99.99,,2013-05-03 01:01:00,
2013-05-02 21:11:00,48.0,38.0,-100.00,NNE,14,1.0,2.0,68,0.00,,,-99.99,,2013-05-03 01:11:00,
2013-05-02 21:21:00,47.0,38.0,-100.00,North,7,1.0,2.0,70,0.00,,,-99.99,,2013-05-03 01:21:00,
2013-05-02 21:31:00,47.0,38.0,-100.00,NW,305,0.0,1.0,71,0.00,,,-99.99,,2013-05-03 01:31:00,
2013-05-02 21:42:00,47.0,38.0,-100.00,North,8,0.0,2.0,72,0.00,,,-99.99,,2013-05-03 01:42:00,
2013-05-02 21:52:00,46.0,38.0,-100.00,NNE,25,0.0,1.0,73,0.00,,,-99.99,,2013-05-03 01:52:00,
2013-05-02 22:01:00,46.0,38.0,-100.00,North,357,0.0,2.0,74,0.00,,,-99.99,,2013-05-03 02:01:00,
2013-05-02 22:11:00,47.0,39.0,-100.00,NNW,335,1.0,3.0,75,0.00,,,-99.99,,2013-05-03 02:11:00,
2013-05-02 22:22:00,-999.0,-99.9,-100.00,NNW,346,0.0,2.0,-999,-99.99,,,-99.99,,2013-05-03 02:22:00,
2013-05-02 22:32:00,46.0,39.0,-100.00,NNW,332,0.0,2.0,77,0.00,,,-99.99,,2013-05-03 02:32:00,
2013-05-02 22:42:00,46.0,40.0,-100.00,NW,325,2.0,4.0,78,0.00,,,-99.99,,2013-05-03 02:42:00,
2013-05-02 22:52:00,46.0,40.0,-100.00,NW,318,2.0,4.0,78,0.00,,,-99.99,,2013-05-03 02:52:00,
2013-05-02 23:01:00,46.0,40.0,-100.00,NW,322,2.0,4.0,79,0.00,,,-99.99,,2013-05-03 03:01:00,
2013-05-02 23:11:00,45.0,40.0,-100.00,NW,318,3.0,4.0,79,0.00,,,-99.99,,2013-05-03 03:11:00,
2013-05-02 23:21:00,46.0,40.0,-100.00,NW,318,3.0,4.0,81,0.00,,,-99.99,,2013-05-03 03:21:00,
2013-05-02 23:33:00,46.0,40.0,-100.00,NW,323,4.0,5.0,80,0.00,,,-99.99,,2013-05-03 03:33:00,
2013-05-02 23:42:00,45.0,40.0,-100.00,NW,319,3.0,6.0,81,0.00,,,-99.99,,2013-05-03 03:42:00,
2013-05-02 23:52:00,45.0,40.0,-100.00,NW,316,4.0,6.0,82,0.00,,,-99.99,,2013-05-03 03:52:00,